TimeHST,TemperatureF,Dew PointF,Humidity,Sea Level PressureIn,VisibilityMPH,Wind Direction,Wind SpeedMPH,Gust SpeedMPH,PrecipitationIn,Events,Conditions,WindDirDegrees,DateUTC
12:53 AM,66.9,60.1,79,29.97,10.0,West,4.6,-,N/A,,Mostly Cloudy,270,2013-05-07 10:53:00
1:53 AM,66.0,59.0,78,29.95,10.0,Calm,Calm,-,N/A,,Mostly Cloudy,0,2013-05-07 11:53:00
2:53 AM,64.9,59.0,81,29.94,10.0,West,3.5,-,N/A,,Scattered Clouds,280,2013-05-07 12:53:00
3:53 AM,66.0,59.0,78,29.94,10.0,West,5.8,-,N/A,,Mostly Cloudy,280,2013-05-07 13:53:00
4:53 AM,64.9,59.0,81,29.94,10.0,West,4.6,-,N/A,,Partly Cloudy,260,2013-05-07 14:53:00
5:53 AM,64.0,60.1,87,29.95,10.0,West,6.9,-,N/A,,Scattered Clouds,260,2013-05-07 15:53:00
6:53 AM,66.0,60.1,81,29.96,10.0,West,5.8,-,N/A,,Clear,280,2013-05-07 16:53:00
7:49 AM,71.6,60.8,69,29.99,10.0,West,4.6,-,N/A,,Mostly Cloudy,280,2013-05-07 17:49:00
7:53 AM,71.1,61.0,70,29.99,10.0,WNW,3.5,-,N/A,,Mostly Cloudy,300,2013-05-07 17:53:00
8:15 AM,73.4,60.8,65,29.99,10.0,Calm,Calm,-,N/A,,Scattered Clouds,0,2013-05-07 18:15:00
8:53 AM,75.0,62.1,64,29.99,10.0,Calm,Calm,-,N/A,,Scattered Clouds,0,2013-05-07 18:53:00
9:53 AM,75.0,61.0,62,30.00,10.0,East,3.5,-,N/A,,Clear,100,2013-05-07 19:53:00
10:53 AM,77.0,61.0,58,30.00,10.0,NE,10.4,-,N/A,,Clear,50,2013-05-07 20:53:00
11:53 AM,77.0,62.1,60,29.99,10.0,NE,15.0,-,N/A,,Clear,50,2013-05-07 21:53:00
12:53 PM,77.0,62.1,60,29.97,10.0,ENE,13.8,-,N/A,,Clear,60,2013-05-07 22:53:00
1:53 PM,78.1,62.1,58,29.96,10.0,NE,17.3,-,N/A,,Scattered Clouds,40,2013-05-07 23:53:00
2:53 PM,77.0,62.1,60,29.94,10.0,NE,18.4,-,N/A,,Scattered Clouds,50,2013-05-08 00:53:00
3:53 PM,75.0,63.0,66,29.94,10.0,NE,19.6,-,N/A,,Overcast,40,2013-05-08 01:53:00
4:53 PM,75.9,63.0,64,29.94,10.0,NE,13.8,-,N/A,,Mostly Cloudy,40,2013-05-08 02:53:00
5:53 PM,73.9,62.1,66,29.95,10.0,NNE,11.5,-,N/A,,Overcast,30,2013-05-08 03:53:00
6:53 PM,73.0,61.0,66,29.96,10.0,North,11.5,-,N/A,,Mostly Cloudy,10,2013-05-08 04:53:00
7:53 PM,71.1,61.0,70,29.98,10.0,North,6.9,-,N/A,,Overcast,360,2013-05-08 05:53:00
8:53 PM,70.0,61.0,73,30.00,10.0,NW,4.6,-,N/A,,Mostly Cloudy,320,2013-05-08 06:53:00
9:53 PM,70.0,61.0,73,30.01,10.0,West,4.6,-,N/A,,Overcast,270,2013-05-08 07:53:00
10:53 PM,69.1,62.1,78,30.02,10.0,NW,4.6,-,N/A,,Overcast,310,2013-05-08 08:53:00
11:53 PM,68.0,61.0,78,30.01,10.0,West,4.6,-,N/A,,Scattered Clouds,280,2013-05-08 09:53:00